Kareedouw Airport


Codes: FAKW/
Name: Kareedouw Airport
City: Kareedouw
Country: South Africa
Elevation: 1050 ft.

Photos at Kareedouw Airport


   Photos courtesy of SpottingLog. You can add your own sightings and photos by signing up for a free trial today.



No photos found.

Weather at Kareedouw Airport


Time (UTC)DescriptionTempratureWindCloud coverageVisibilityPressureHumidity
15-Apr-2024 18:00Overcast Clouds19°C11 mph, NE88%10000m1020hPa75%
15-Apr-2024 21:00Overcast Clouds18°C11 mph, E96%10000m1020hPa83%
16-Apr-2024 00:00Overcast Clouds17°C4 mph, NE90%10000m1019hPa88%
16-Apr-2024 03:00Few Clouds16°C4 mph, NE17%10000m1018hPa92%
16-Apr-2024 06:00Few Clouds17°C4 mph, NE15%10000m1018hPa83%
16-Apr-2024 09:00Clear Sky24°C4 mph, NE8%10000m1017hPa53%
16-Apr-2024 12:00Clear Sky28°C7 mph, NE7%10000m1015hPa37%
16-Apr-2024 15:00Clear Sky26°C7 mph, E1%10000m1014hPa51%
16-Apr-2024 18:00Clear Sky21°C4 mph, NE2%10000m1015hPa66%
16-Apr-2024 21:00Clear Sky21°C7 mph, N0%10000m1014hPa65%
17-Apr-2024 00:00Clear Sky20°C7 mph, N0%10000m1013hPa62%
17-Apr-2024 03:00Clear Sky20°C7 mph, N0%10000m1013hPa60%
17-Apr-2024 06:00Clear Sky21°C7 mph, N0%10000m1014hPa58%
17-Apr-2024 09:00Clear Sky28°C13 mph, NW0%10000m1014hPa33%
17-Apr-2024 12:00Clear Sky29°C11 mph, NW0%10000m1012hPa32%
17-Apr-2024 15:00Clear Sky24°C0 mph, SE0%10000m1013hPa48%
17-Apr-2024 18:00Clear Sky21°C4 mph, SW0%10000m1015hPa56%
17-Apr-2024 21:00Few Clouds18°C4 mph, W21%10000m1017hPa73%
18-Apr-2024 00:00Scattered Clouds17°C4 mph, W25%10000m1017hPa81%
18-Apr-2024 03:00Broken Clouds17°C4 mph, W77%10000m1017hPa71%
18-Apr-2024 06:00Overcast Clouds18°C2 mph, SW87%10000m1019hPa75%
18-Apr-2024 09:00Broken Clouds22°C4 mph, SW65%10000m1019hPa61%
18-Apr-2024 12:00Scattered Clouds23°C4 mph, SW39%10000m1017hPa60%
18-Apr-2024 15:00Scattered Clouds20°C4 mph, S30%10000m1019hPa72%
18-Apr-2024 18:00Broken Clouds17°C2 mph, SE64%10000m1019hPa83%
18-Apr-2024 21:00Broken Clouds17°C2 mph, NE83%10000m1019hPa83%
19-Apr-2024 00:00Scattered Clouds16°C2 mph, NE46%10000m1018hPa85%
19-Apr-2024 03:00Broken Clouds16°C2 mph, NE74%10000m1018hPa85%
19-Apr-2024 06:00Broken Clouds18°C4 mph, NE76%10000m1017hPa75%
19-Apr-2024 09:00Overcast Clouds25°C2 mph, NE93%10000m1016hPa53%
19-Apr-2024 12:00Broken Clouds29°C2 mph, SE66%10000m1012hPa41%
19-Apr-2024 15:00Scattered Clouds24°C4 mph, SE28%10000m1012hPa61%
19-Apr-2024 18:00Few Clouds18°C2 mph, SE16%10000m1014hPa92%
19-Apr-2024 21:00Scattered Clouds18°C4 mph, N37%10000m1013hPa90%
20-Apr-2024 00:00Scattered Clouds18°C7 mph, W46%10000m1013hPa81%
20-Apr-2024 03:00Broken Clouds16°C7 mph, W75%10000m1014hPa91%
20-Apr-2024 06:00Broken Clouds17°C4 mph, SW78%10000m1015hPa82%
20-Apr-2024 09:00Overcast Clouds21°C7 mph, SW99%10000m1015hPa68%
20-Apr-2024 12:00Overcast Clouds21°C7 mph, SW100%10000m1015hPa66%
20-Apr-2024 15:00Scattered Clouds19°C2 mph, S34%10000m1015hPa75%